Time;durP1;ratioP1;P1;durP2;ratioP2;P2;SDS_P1;SDS_P2;PMS_P1;PMS_P2;Temp;Humidity;BMP_temperature;BMP_pressure;BME280_temperature;BME280_humidity;BME280_pressure;Samples;Min_cycle;Max_cycle;Signal;HPM_P1;HPM_P2
2023/08/04 00:00:42;;;;;;;7.20;2.53;;;15.10;99.90;;;;;;5016435;28;20194;-59
2023/08/04 00:03:09;;;;;;;2.65;2.22;;;15.10;99.90;;;;;;5024179;28;20041;-60
2023/08/04 00:05:36;;;;;;;5.10;2.28;;;15.10;99.90;;;;;;5030710;28;20418;-60
2023/08/04 00:08:03;;;;;;;9.00;2.35;;;15.10;99.90;;;;;;5030253;28;20045;-61
2023/08/04 00:10:29;;;;;;;5.80;2.38;;;15.10;99.90;;;;;;5011860;28;20042;-60
2023/08/04 00:12:56;;;;;;;7.55;2.53;;;15.10;99.90;;;;;;5011495;28;20046;-60
2023/08/04 00:15:23;;;;;;;5.07;2.22;;;15.10;99.90;;;;;;5024458;28;20046;-61
2023/08/04 00:17:50;;;;;;;8.93;2.72;;;15.10;99.90;;;;;;5018846;28;20053;-59
2023/08/04 00:20:17;;;;;;;7.82;2.78;;;15.10;99.90;;;;;;5011689;28;20030;-60
2023/08/04 00:22:43;;;;;;;5.00;2.58;;;15.10;99.90;;;;;;5010968;28;20041;-61
2023/08/04 00:25:11;;;;;;;6.25;2.72;;;15.10;99.90;;;;;;5014130;28;20042;-61
2023/08/04 00:27:37;;;;;;;;;;;15.10;99.90;;;;;;5031805;28;20041;-61
2023/08/04 00:30:06;;;;;;;8.88;3.10;;;15.10;99.90;;;;;;5003893;28;19927;-59
2023/08/04 00:32:32;;;;;;;4.68;3.53;;;15.10;99.90;;;;;;5025235;28;20042;-61
2023/08/04 00:34:59;;;;;;;4.80;1.95;;;15.10;99.90;;;;;;5012353;28;20053;-61
2023/08/04 00:37:28;;;;;;;11.18;2.30;;;15.10;99.90;;;;;;5000128;28;20493;-61
2023/08/04 00:39:55;;;;;;;15.15;3.20;;;15.10;99.90;;;;;;5021847;28;20403;-60
2023/08/04 00:42:21;;;;;;;4.78;2.25;;;15.10;99.90;;;;;;5004931;28;20060;-60
2023/08/04 00:44:48;;;;;;;11.73;3.08;;;15.00;99.90;;;;;;4998052;28;20045;-61
2023/08/04 00:47:15;;;;;;;7.93;2.33;;;15.10;99.90;;;;;;5014660;28;20053;-60
2023/08/04 00:49:45;;;;;;;12.75;3.38;;;15.00;99.90;;;;;;5028247;28;20042;-60
2023/08/04 00:52:11;;;;;;;8.30;1.60;;;15.00;99.90;;;;;;5014364;28;20386;-60
2023/08/04 00:54:38;;;;;;;5.95;1.80;;;15.00;99.90;;;;;;5015866;28;20150;-61
2023/08/04 00:57:05;;;;;;;3.40;1.65;;;14.90;99.90;;;;;;5023889;28;20056;-60
2023/08/04 00:59:32;;;;;;;2.95;2.17;;;14.90;99.90;;;;;;5010822;28;20497;-60
2023/08/04 01:01:59;;;;;;;7.07;2.00;;;14.90;99.90;;;;;;5031542;28;20399;-60
2023/08/04 01:04:26;;;;;;;2.80;1.33;;;14.90;99.90;;;;;;5031309;28;20045;-60
2023/08/04 01:07:23;;;;;;;1.98;1.45;;;14.90;99.90;;;;;;5023801;28;20581;-60
2023/08/04 01:10:25;;;;;;;7.20;2.00;;;14.90;99.90;;;;;;5012203;28;20071;-60
2023/08/04 01:12:58;;;;;;;2.35;1.58;;;14.90;99.90;;;;;;5027152;28;20602;-60
2023/08/04 01:15:26;;;;;;;3.88;1.67;;;14.80;99.90;;;;;;5009431;28;20037;-60
2023/08/04 01:17:56;;;;;;;4.75;1.38;;;14.70;99.90;;;;;;5013047;28;20056;-60
2023/08/04 01:20:24;;;;;;;2.88;1.48;;;14.60;99.90;;;;;;5034048;28;20038;-60
2023/08/04 01:22:53;;;;;;;3.85;1.40;;;14.60;99.90;;;;;;5026352;28;20032;-60
2023/08/04 01:25:25;;;;;;;4.85;1.50;;;14.60;99.90;;;;;;5022530;28;20777;-61
2023/08/04 01:28:12;;;;;;;4.00;1.30;;;14.50;99.90;;;;;;5001358;28;20065;-60
2023/08/04 01:30:43;;;;;;;2.78;1.35;;;14.50;99.90;;;;;;5020657;28;20116;-60
2023/08/04 01:33:10;;;;;;;3.50;1.52;;;14.40;99.90;;;;;;5006841;28;20148;-60
2023/08/04 01:35:36;;;;;;;6.60;1.52;;;14.40;99.90;;;;;;5005435;28;20049;-60
2023/08/04 01:38:03;;;;;;;3.30;1.30;;;14.40;99.90;;;;;;5012215;28;20056;-60
2023/08/04 01:40:30;;;;;;;2.95;1.17;;;14.40;99.90;;;;;;5030245;28;20038;-60
2023/08/04 01:42:57;;;;;;;2.72;1.20;;;14.70;99.90;;;;;;5003175;28;20049;-61
2023/08/04 01:45:23;;;;;;;5.47;1.40;;;14.40;99.90;;;;;;5014303;28;20053;-60
2023/08/04 01:47:50;;;;;;;2.25;1.27;;;14.40;99.90;;;;;;5021381;28;20033;-61
2023/08/04 01:50:17;;;;;;;3.10;1.40;;;14.50;99.90;;;;;;5031316;28;20065;-59
2023/08/04 01:52:44;;;;;;;1.92;1.35;;;14.50;99.90;;;;;;5013216;28;20120;-61
2023/08/04 01:55:11;;;;;;;2.63;1.45;;;14.50;99.90;;;;;;5011147;28;20052;-60
2023/08/04 01:57:37;;;;;;;1.80;1.20;;;14.60;99.90;;;;;;5001885;28;20486;-60
2023/08/04 02:00:06;;;;;;;3.08;1.38;;;14.60;99.90;;;;;;5012438;28;20046;-60
2023/08/04 02:02:39;;;;;;;2.70;1.48;;;14.60;99.90;;;;;;5029018;28;20584;-60
2023/08/04 02:05:07;;;;;;;3.63;1.15;;;14.60;99.90;;;;;;5012814;28;20128;-60
2023/08/04 02:07:33;;;;;;;4.50;1.60;;;14.60;99.90;;;;;;5018590;28;20108;-60
2023/08/04 02:10:01;;;;;;;5.07;1.77;;;14.60;99.90;;;;;;5014904;28;20418;-60
2023/08/04 02:12:28;;;;;;;2.78;1.65;;;14.60;99.90;;;;;;5025296;28;20045;-61
2023/08/04 02:14:55;;;;;;;5.95;2.17;;;14.60;99.90;;;;;;5033245;28;20041;-61
2023/08/04 02:17:21;;;;;;;4.43;1.85;;;14.60;99.90;;;;;;5014435;28;20130;-59
2023/08/04 02:19:48;;;;;;;3.90;1.90;;;14.60;99.90;;;;;;5033920;28;20104;-60
2023/08/04 02:22:15;;;;;;;10.57;1.98;;;14.60;99.90;;;;;;5005337;28;20054;-60
2023/08/04 02:24:42;;;;;;;4.28;1.35;;;14.60;99.90;;;;;;5004476;28;20415;-59
2023/08/04 02:27:08;;;;;;;2.45;1.15;;;14.60;99.90;;;;;;5024617;28;20476;-60
2023/08/04 02:29:35;;;;;;;3.92;1.17;;;14.60;99.90;;;;;;5014056;28;20839;-61
2023/08/04 02:32:02;;;;;;;3.28;1.63;;;14.60;99.90;;;;;;5021478;28;20037;-60
2023/08/04 02:34:29;;;;;;;7.50;1.42;;;14.60;99.90;;;;;;5017525;28;20038;-59
2023/08/04 02:36:56;;;;;;;6.78;1.27;;;14.60;99.90;;;;;;5017872;28;20057;-60
2023/08/04 02:39:23;;;;;;;2.88;1.05;;;14.60;99.90;;;;;;5013783;28;20474;-60
2023/08/04 02:41:50;;;;;;;5.20;1.55;;;14.60;99.90;;;;;;5020044;28;20042;-60
2023/08/04 02:44:16;;;;;;;3.45;0.98;;;14.60;99.90;;;;;;5011955;28;20075;-61
2023/08/04 02:46:45;;;;;;;1.10;0.90;;;14.50;99.90;;;;;;5022155;28;20037;-60
2023/08/04 02:49:12;;;;;;;2.55;1.25;;;14.40;99.90;;;;;;5012433;28;20065;-59
2023/08/04 02:51:38;;;;;;;3.35;1.58;;;14.40;99.90;;;;;;5032662;28;20041;-60
2023/08/04 02:54:05;;;;;;;2.53;1.65;;;14.40;99.90;;;;;;5039985;28;20048;-59
2023/08/04 02:56:32;;;;;;;3.38;1.75;;;14.50;99.90;;;;;;5023175;28;20041;-60
2023/08/04 02:58:59;;;;;;;5.32;1.67;;;14.50;99.90;;;;;;5032645;28;20482;-61
2023/08/04 03:01:25;;;;;;;5.97;1.92;;;14.40;99.90;;;;;;5032249;28;20044;-60
2023/08/04 03:03:52;;;;;;;5.80;2.00;;;14.40;99.90;;;;;;5023945;28;20061;-60
2023/08/04 03:06:19;;;;;;;3.67;2.10;;;14.40;99.90;;;;;;5012883;28;20038;-61
2023/08/04 03:08:45;;;;;;;3.10;1.58;;;14.40;99.90;;;;;;5021451;28;20382;-61
2023/08/04 03:11:12;;;;;;;3.40;1.40;;;14.40;99.90;;;;;;5020745;28;20053;-61
2023/08/04 03:13:39;;;;;;;3.03;1.38;;;14.40;99.90;;;;;;5013634;28;20042;-61
2023/08/04 03:16:06;;;;;;;1.77;1.33;;;14.40;99.90;;;;;;5014023;28;20045;-59
2023/08/04 03:18:33;;;;;;;1.98;1.30;;;14.40;99.90;;;;;;5032572;28;20048;-59
2023/08/04 03:21:04;;;;;;;3.53;1.40;;;14.40;99.90;;;;;;5017528;28;20402;-59
2023/08/04 03:23:31;;;;;;;3.25;1.23;;;14.30;99.90;;;;;;5029120;28;20048;-57
2023/08/04 03:25:58;;;;;;;;;;;14.30;99.90;;;;;;5017419;28;20069;-60
2023/08/04 03:28:24;;;;;;;5.43;1.42;;;14.30;99.90;;;;;;5012671;28;19925;-59
2023/08/04 03:30:51;;;;;;;2.38;1.27;;;14.30;99.90;;;;;;5012143;28;20041;-59
2023/08/04 03:33:19;;;;;;;3.15;1.20;;;14.30;99.90;;;;;;5012216;28;20411;-60
2023/08/04 03:35:45;;;;;;;2.58;1.50;;;14.30;99.90;;;;;;5028856;28;20048;-60
2023/08/04 03:38:12;;;;;;;2.78;1.15;;;14.30;99.90;;;;;;5032008;28;20394;-60
2023/08/04 03:40:39;;;;;;;2.33;1.45;;;14.30;99.90;;;;;;5012576;28;20037;-59
2023/08/04 03:43:06;;;;;;;6.53;1.40;;;14.30;99.90;;;;;;5019716;28;20041;-60
2023/08/04 03:45:33;;;;;;;3.35;1.30;;;14.40;99.90;;;;;;5014225;28;20041;-59
2023/08/04 03:48:00;;;;;;;1.52;1.00;;;14.40;99.90;;;;;;5022903;28;20053;-59
2023/08/04 03:50:27;;;;;;;2.80;1.20;;;14.40;99.90;;;;;;5032153;28;20103;-60
2023/08/04 03:52:53;;;;;;;2.17;1.30;;;14.40;99.90;;;;;;5017270;28;20061;-60
2023/08/04 03:55:20;;;;;;;2.83;1.10;;;14.40;99.90;;;;;;5020283;28;20052;-59
2023/08/04 03:57:47;;;;;;;4.10;1.10;;;14.40;99.90;;;;;;5020730;28;20041;-60
2023/08/04 04:00:14;;;;;;;3.75;1.20;;;14.50;99.90;;;;;;5015499;28;20037;-61
2023/08/04 04:02:41;;;;;;;2.75;1.20;;;14.50;99.90;;;;;;5018467;28;20041;-59
2023/08/04 04:05:08;;;;;;;4.40;1.20;;;14.50;99.90;;;;;;4994759;28;20034;-60
2023/08/04 04:07:35;;;;;;;2.20;1.50;;;14.60;99.90;;;;;;5019938;28;20077;-61
2023/08/04 04:10:02;;;;;;;5.47;1.25;;;14.50;99.90;;;;;;5018415;28;20053;-60
2023/08/04 04:12:28;;;;;;;2.67;1.15;;;14.50;99.90;;;;;;5013021;28;20064;-60
2023/08/04 04:14:55;;;;;;;4.38;1.40;;;14.40;99.90;;;;;;5011812;28;20080;-60
2023/08/04 04:17:22;;;;;;;1.83;1.40;;;15.00;99.90;;;;;;5013989;28;20068;-59
2023/08/04 04:19:49;;;;;;;3.55;1.20;;;14.40;99.90;;;;;;5023637;28;20052;-61
2023/08/04 04:22:16;;;;;;;7.80;2.10;;;14.40;99.90;;;;;;5028379;28;20124;-59
2023/08/04 04:24:42;;;;;;;2.15;1.70;;;14.40;99.90;;;;;;5031482;28;20037;-61
2023/08/04 04:27:11;;;;;;;2.13;1.10;;;14.40;99.90;;;;;;5024134;28;20053;-60
2023/08/04 04:29:38;;;;;;;5.30;1.85;;;14.40;99.90;;;;;;5021578;28;20084;-60
2023/08/04 04:32:06;;;;;;;5.22;1.50;;;14.40;99.90;;;;;;5011265;28;20080;-61
2023/08/04 04:34:33;;;;;;;5.72;1.50;;;14.40;99.90;;;;;;5011353;28;20061;-61
2023/08/04 04:37:00;;;;;;;4.43;1.48;;;14.30;99.90;;;;;;5014995;28;20038;-61
2023/08/04 04:39:27;;;;;;;1.85;1.27;;;14.30;99.90;;;;;;5031223;28;20048;-59
2023/08/04 04:41:54;;;;;;;1.33;1.17;;;14.40;99.90;;;;;;5017036;28;20050;-60
2023/08/04 04:44:20;;;;;;;5.90;2.08;;;14.30;99.90;;;;;;5019776;28;20042;-60
2023/08/04 04:46:47;;;;;;;7.75;1.20;;;14.40;99.90;;;;;;5004537;28;20041;-59
2023/08/04 04:49:16;;;;;;;2.55;1.10;;;14.40;99.90;;;;;;5023775;28;20042;-60
2023/08/04 04:51:43;;;;;;;2.85;1.00;;;14.40;99.90;;;;;;5022903;28;20534;-61
2023/08/04 04:54:11;;;;;;;1.52;1.00;;;14.40;99.90;;;;;;5023790;28;20049;-61
2023/08/04 04:56:38;;;;;;;4.10;1.00;;;14.40;99.90;;;;;;5022311;28;20050;-59
2023/08/04 04:59:05;;;;;;;2.10;1.00;;;14.40;99.90;;;;;;5024872;28;20092;-60
2023/08/04 05:01:32;;;;;;;7.72;1.20;;;14.40;99.90;;;;;;5010687;28;20061;-60
2023/08/04 05:03:58;;;;;;;4.47;1.30;;;14.40;99.90;;;;;;5011497;28;20038;-58
2023/08/04 05:06:25;;;;;;;7.55;1.30;;;14.40;99.90;;;;;;5011407;28;20057;-60
2023/08/04 05:08:56;;;;;;;3.35;1.27;;;14.50;99.90;;;;;;5016897;28;20060;-60
2023/08/04 05:11:23;;;;;;;1.42;1.17;;;14.60;99.90;;;;;;5028610;28;20045;-59
2023/08/04 05:13:49;;;;;;;3.17;1.30;;;14.60;99.90;;;;;;5026617;28;20128;-60
2023/08/04 05:16:16;;;;;;;1.35;1.00;;;14.70;99.90;;;;;;5031205;28;20049;-61
2023/08/04 05:18:43;;;;;;;2.90;1.05;;;14.80;99.90;;;;;;5014764;28;20037;-61
2023/08/04 05:21:10;;;;;;;1.63;1.10;;;14.70;99.90;;;;;;5023145;28;20390;-61
2023/08/04 05:23:37;;;;;;;2.47;0.80;;;14.70;99.90;;;;;;5021475;28;20073;-60
2023/08/04 05:26:03;;;;;;;2.60;0.95;;;14.70;99.90;;;;;;5026182;28;20491;-60
2023/08/04 05:28:32;;;;;;;4.55;0.63;;;14.60;99.90;;;;;;5026439;28;20232;-61
2023/08/04 05:31:01;;;;;;;2.03;0.90;;;14.60;99.90;;;;;;5021242;28;20046;-61
2023/08/04 05:33:29;;;;;;;1.92;0.63;;;14.60;99.90;;;;;;5020952;28;20044;-61
2023/08/04 05:35:57;;;;;;;6.47;1.08;;;14.50;99.90;;;;;;5027620;28;20055;-61
2023/08/04 05:38:24;;;;;;;1.92;0.80;;;14.50;99.90;;;;;;5026919;28;20052;-61
2023/08/04 05:40:51;;;;;;;;;;;14.70;99.90;;;;;;5026338;28;20436;-61
2023/08/04 05:43:18;;;;;;;2.60;0.63;;;14.90;99.90;;;;;;5021755;28;19921;-61
2023/08/04 05:45:50;;;;;;;1.45;0.90;;;14.90;99.90;;;;;;5030134;28;20037;-60
2023/08/04 05:48:17;;;;;;;2.65;0.60;;;14.90;99.90;;;;;;5023001;28;20254;-61
2023/08/04 05:50:44;;;;;;;0.90;0.52;;;15.10;99.90;;;;;;5014377;28;20053;-60
2023/08/04 05:53:11;;;;;;;1.60;0.70;;;14.90;99.90;;;;;;5021646;28;20050;-60
2023/08/04 05:55:37;;;;;;;2.92;0.70;;;15.00;99.90;;;;;;5029722;28;20056;-60
2023/08/04 05:58:05;;;;;;;1.58;1.08;;;15.00;99.90;;;;;;5023134;28;20041;-59
2023/08/04 06:00:35;;;;;;;3.65;1.15;;;15.10;99.90;;;;;;5033409;28;20124;-61
2023/08/04 06:03:03;;;;;;;2.13;0.73;;;15.10;99.90;;;;;;5019483;28;20045;-62
2023/08/04 06:05:30;;;;;;;4.20;0.90;;;15.40;99.90;;;;;;5013714;28;20042;-60
2023/08/04 06:07:57;;;;;;;;;;;15.40;99.90;;;;;;5026727;28;20120;-61
2023/08/04 06:10:24;;;;;;;3.75;1.10;;;15.40;99.90;;;;;;5025562;28;19927;-61
2023/08/04 06:12:51;;;;;;;3.50;2.33;;;15.50;99.90;;;;;;5019839;28;20041;-60
2023/08/04 06:15:19;;;;;;;5.30;2.38;;;15.60;99.90;;;;;;5025585;28;20052;-61
2023/08/04 06:17:47;;;;;;;2.58;1.90;;;15.60;99.90;;;;;;5013017;28;20399;-61
2023/08/04 06:20:14;;;;;;;4.10;1.60;;;15.70;99.90;;;;;;5012177;28;20049;-61
2023/08/04 06:22:41;;;;;;;3.80;1.70;;;15.70;99.90;;;;;;5022093;28;20042;-61
2023/08/04 06:25:08;;;;;;;4.63;1.70;;;15.70;99.90;;;;;;5023877;28;20041;-61
2023/08/04 06:27:35;;;;;;;2.92;1.60;;;15.80;99.90;;;;;;5031561;28;20045;-61
2023/08/04 06:30:02;;;;;;;2.65;1.05;;;15.80;99.90;;;;;;5017734;28;20049;-62
2023/08/04 06:32:29;;;;;;;4.53;1.20;;;15.80;99.90;;;;;;5024171;28;20053;-60
2023/08/04 06:34:56;;;;;;;4.63;1.23;;;15.90;99.90;;;;;;5025719;28;20081;-61
2023/08/04 06:37:23;;;;;;;2.53;1.73;;;16.00;99.90;;;;;;5032549;28;20080;-61
2023/08/04 06:39:50;;;;;;;3.97;1.50;;;16.00;99.90;;;;;;5018841;28;20457;-61
2023/08/04 06:42:18;;;;;;;4.85;2.28;;;16.20;99.90;;;;;;5031109;28;20046;-61
2023/08/04 06:44:45;;;;;;;5.45;1.92;;;16.20;99.90;;;;;;5031862;28;20042;-61
2023/08/04 06:47:12;;;;;;;5.57;1.85;;;16.20;99.90;;;;;;5026177;28;20045;-60
2023/08/04 06:49:40;;;;;;;3.75;2.08;;;16.10;99.90;;;;;;5019470;28;20495;-61
2023/08/04 06:52:08;;;;;;;6.55;1.83;;;16.10;99.90;;;;;;5031033;28;20049;-60
2023/08/04 06:54:35;;;;;;;2.50;1.10;;;16.00;99.90;;;;;;5023838;28;20445;-59
2023/08/04 06:57:02;;;;;;;1.90;0.77;;;16.10;99.90;;;;;;5014440;28;20084;-61
2023/08/04 06:59:29;;;;;;;2.80;0.68;;;16.20;99.90;;;;;;5032018;28;20390;-61
2023/08/04 07:01:56;;;;;;;2.10;0.70;;;16.30;99.90;;;;;;5019691;28;20045;-61
2023/08/04 07:04:22;;;;;;;2.15;0.80;;;16.30;99.90;;;;;;5025933;28;20045;-60
2023/08/04 07:06:49;;;;;;;1.17;0.90;;;16.30;99.90;;;;;;5029289;28;20045;-61
2023/08/04 07:09:16;;;;;;;1.38;0.90;;;16.30;99.90;;;;;;5019828;28;20042;-57
2023/08/04 07:11:43;;;;;;;2.80;1.10;;;16.60;99.90;;;;;;5021318;28;20422;-60
2023/08/04 07:14:10;;;;;;;5.00;1.23;;;16.70;99.90;;;;;;5026946;28;20057;-61
2023/08/04 07:16:36;;;;;;;2.10;0.80;;;16.70;99.90;;;;;;5012756;28;20056;-61
2023/08/04 07:19:03;;;;;;;2.35;1.00;;;16.80;99.90;;;;;;5016741;28;20517;-61
2023/08/04 07:21:30;;;;;;;1.95;0.90;;;16.90;99.90;;;;;;5015347;28;20463;-61
2023/08/04 07:23:57;;;;;;;1.10;0.88;;;16.70;99.90;;;;;;5020104;28;20048;-62
2023/08/04 07:26:23;;;;;;;7.32;1.10;;;16.80;99.90;;;;;;5026884;28;20053;-61
2023/08/04 07:28:50;;;;;;;1.38;0.90;;;16.60;99.90;;;;;;5031825;28;20049;-61
2023/08/04 07:31:17;;;;;;;1.38;0.60;;;16.70;99.90;;;;;;5023219;28;20068;-60
2023/08/04 07:33:44;;;;;;;3.35;0.80;;;16.70;99.90;;;;;;5017381;28;20045;-60
2023/08/04 07:36:11;;;;;;;2.10;0.85;;;16.80;99.90;;;;;;5026844;28;20042;-59
2023/08/04 07:38:38;;;;;;;2.17;0.70;;;16.80;99.90;;;;;;5019818;28;20045;-60
2023/08/04 07:41:04;;;;;;;3.92;1.10;;;17.00;99.90;;;;;;5023609;28;20500;-60
2023/08/04 07:43:31;;;;;;;4.75;1.20;;;17.00;99.90;;;;;;5029856;28;20044;-59
2023/08/04 07:45:58;;;;;;;1.95;0.93;;;16.90;99.90;;;;;;5031694;28;20033;-60
2023/08/04 07:48:25;;;;;;;1.80;1.23;;;16.70;99.90;;;;;;5015844;28;20121;-60
2023/08/04 07:50:52;;;;;;;2.17;1.13;;;16.70;99.90;;;;;;5017272;28;20041;-58
2023/08/04 07:53:19;;;;;;;;;;;16.70;99.90;;;;;;5019975;28;20112;-59
2023/08/04 07:55:57;;;;;;;3.40;1.30;;;16.90;99.90;;;;;;5018707;28;20012;-60
2023/08/04 07:58:24;;;;;;;2.60;1.02;;;17.00;99.90;;;;;;5018391;28;20041;-60
2023/08/04 08:00:51;;;;;;;3.92;1.08;;;17.10;99.90;;;;;;5017141;28;20045;-60
2023/08/04 08:03:18;;;;;;;3.25;1.10;;;17.00;99.90;;;;;;5031005;28;20103;-60
2023/08/04 08:05:46;;;;;;;4.30;1.10;;;16.90;99.90;;;;;;5020348;28;20053;-60
2023/08/04 08:08:13;;;;;;;2.50;1.27;;;16.80;99.90;;;;;;5011221;28;20038;-58
2023/08/04 08:10:39;;;;;;;3.90;1.27;;;16.90;99.90;;;;;;5031020;28;20041;-60
2023/08/04 08:13:07;;;;;;;4.00;1.10;;;16.90;99.90;;;;;;5022257;28;20048;-60
2023/08/04 08:15:35;;;;;;;3.70;1.20;;;16.80;99.90;;;;;;5022918;28;20103;-60
2023/08/04 08:18:03;;;;;;;2.00;1.02;;;16.70;99.90;;;;;;5019847;28;20049;-58
2023/08/04 08:20:30;;;;;;;0.82;0.80;;;16.80;99.90;;;;;;5030972;28;20107;-60
2023/08/04 08:22:56;;;;;;;1.92;0.77;;;16.80;99.90;;;;;;5011313;28;20041;-60
2023/08/04 08:25:24;;;;;;;2.20;0.93;;;16.90;99.90;;;;;;5017909;28;20080;-60
2023/08/04 08:27:51;;;;;;;3.30;1.02;;;16.90;99.90;;;;;;4999898;28;20038;-59
2023/08/04 08:30:18;;;;;;;4.80;1.17;;;16.90;99.90;;;;;;5011652;28;20038;-61
2023/08/04 08:32:45;;;;;;;2.53;1.08;;;17.00;99.90;;;;;;5019476;28;20070;-60
2023/08/04 08:35:12;;;;;;;3.60;1.45;;;17.10;99.90;;;;;;5029108;28;20056;-60
2023/08/04 08:37:39;;;;;;;4.22;1.15;;;17.20;99.90;;;;;;5031027;28;20486;-58
2023/08/04 08:40:06;;;;;;;1.77;1.00;;;17.30;99.90;;;;;;5013814;28;20387;-59
2023/08/04 08:42:34;;;;;;;2.60;1.17;;;17.30;99.90;;;;;;5014922;28;20081;-60
2023/08/04 08:45:01;;;;;;;2.47;1.25;;;17.30;99.90;;;;;;5012614;28;20418;-60
2023/08/04 08:47:36;;;;;;;3.08;1.00;;;17.40;99.90;;;;;;5030842;28;20041;-60
2023/08/04 08:50:05;;;;;;;2.35;1.25;;;17.30;99.90;;;;;;5022197;28;20038;-60
2023/08/04 08:52:37;;;;;;;2.03;1.27;;;17.30;99.90;;;;;;5023610;28;20041;-60
2023/08/04 08:55:05;;;;;;;2.03;1.27;;;17.40;99.90;;;;;;5018166;28;20124;-59
2023/08/04 08:57:32;;;;;;;2.80;1.00;;;17.50;99.90;;;;;;5019939;28;20060;-60
2023/08/04 09:00:01;;;;;;;2.75;1.50;;;17.70;99.90;;;;;;5012174;28;20042;-60
2023/08/04 09:02:27;;;;;;;1.95;1.40;;;17.70;99.90;;;;;;5022521;28;20491;-60
2023/08/04 09:04:54;;;;;;;2.33;1.13;;;17.90;99.90;;;;;;5014858;28;20522;-60
2023/08/04 09:07:23;;;;;;;2.50;1.35;;;17.90;99.90;;;;;;5021480;28;20041;-60
2023/08/04 09:09:49;;;;;;;1.17;1.00;;;17.90;99.90;;;;;;5034398;28;20092;-60
2023/08/04 09:12:16;;;;;;;3.72;1.10;;;18.00;99.90;;;;;;5025782;28;20076;-60
2023/08/04 09:14:51;;;;;;;3.55;1.23;;;18.10;99.90;;;;;;5017992;28;20046;-61
2023/08/04 09:17:37;;;;;;;2.67;1.33;;;18.30;99.90;;;;;;5034224;28;20041;-60
2023/08/04 09:20:07;;;;;;;3.78;1.60;;;18.50;99.90;;;;;;5022817;28;20048;-61
2023/08/04 09:22:42;;;;;;;4.53;1.83;;;18.60;99.90;;;;;;5014367;28;20042;-59
2023/08/04 09:25:09;;;;;;;4.05;1.90;;;18.60;99.90;;;;;;5025892;28;20041;-60
2023/08/04 09:27:38;;;;;;;4.07;2.00;;;18.50;99.90;;;;;;5026194;28;20042;-61
2023/08/04 09:30:10;;;;;;;3.25;2.17;;;18.60;99.90;;;;;;5021605;28;20096;-61
2023/08/04 09:32:57;;;;;;;3.67;2.00;;;18.90;99.90;;;;;;5013782;28;20068;-61
2023/08/04 09:35:24;;;;;;;3.30;1.48;;;19.10;99.90;;;;;;5014467;28;20061;-59
2023/08/04 09:37:55;;;;;;;3.05;1.27;;;19.20;99.90;;;;;;5014720;28;20049;-60
2023/08/04 09:40:22;;;;;;;1.80;1.50;;;19.10;99.90;;;;;;5032389;28;20044;-61
2023/08/04 09:42:48;;;;;;;2.85;1.38;;;19.00;99.90;;;;;;5024483;28;20042;-61
2023/08/04 09:45:16;;;;;;;5.47;1.67;;;19.00;99.90;;;;;;5026334;28;20037;-60
2023/08/04 09:47:51;;;;;;;3.50;1.38;;;19.00;99.90;;;;;;5032270;28;20080;-59
2023/08/04 09:50:19;;;;;;;2.20;1.75;;;19.00;99.90;;;;;;5022742;28;20474;-61
2023/08/04 09:52:46;;;;;;;2.20;1.30;;;19.20;99.90;;;;;;5013236;28;20112;-61
2023/08/04 09:55:13;;;;;;;2.28;1.35;;;19.40;99.90;;;;;;5017700;28;20037;-61
2023/08/04 09:57:41;;;;;;;2.55;1.23;;;19.40;99.90;;;;;;5032261;28;20148;-61
2023/08/04 10:00:10;;;;;;;0.98;0.93;;;19.30;99.90;;;;;;5022466;28;20490;-60
2023/08/04 10:02:40;;;;;;;1.65;1.10;;;19.00;99.90;;;;;;5033236;28;20057;-60
2023/08/04 10:05:09;;;;;;;1.98;0.90;;;19.10;99.90;;;;;;5013525;28;20046;-60
2023/08/04 10:07:36;;;;;;;1.60;0.93;;;19.20;99.90;;;;;;5024472;28;20038;-61
2023/08/04 10:10:06;;;;;;;1.48;1.10;;;19.10;99.90;;;;;;5030601;28;20457;-59
2023/08/04 10:12:34;;;;;;;2.92;0.90;;;19.20;99.90;;;;;;5026175;28;20056;-60
2023/08/04 10:15:02;;;;;;;3.42;1.40;;;19.10;99.90;;;;;;5021466;28;20041;-60
2023/08/04 10:17:28;;;;;;;1.67;0.90;;;19.20;99.90;;;;;;5017973;28;20045;-61
2023/08/04 10:20:04;;;;;;;1.88;1.00;;;19.50;99.90;;;;;;5033179;28;20045;-61
2023/08/04 10:22:32;;;;;;;1.40;0.70;;;19.80;99.90;;;;;;5018604;28;20161;-61
2023/08/04 10:24:59;;;;;;;1.58;0.95;;;19.60;99.90;;;;;;5021464;28;20487;-61
2023/08/04 10:27:26;;;;;;;;;;;19.50;99.90;;;;;;5020703;28;20034;-61
2023/08/04 10:30:19;;;;;;;1.88;0.93;;;19.40;99.90;;;;;;5013198;28;20292;-61
2023/08/04 10:32:47;;;;;;;1.23;0.85;;;19.10;99.90;;;;;;5020968;28;20112;-60
2023/08/04 10:35:20;;;;;;;1.88;1.05;;;19.00;99.90;;;;;;5025972;28;20449;-61
2023/08/04 10:37:50;;;;;;;0.80;0.70;;;18.90;99.90;;;;;;5025247;28;20053;-61
2023/08/04 10:40:30;;;;;;;3.72;1.00;;;18.90;99.90;;;;;;5029246;28;20513;-61
2023/08/04 10:43:08;;;;;;;0.63;0.55;;;19.00;99.90;;;;;;5031502;28;20049;-61
2023/08/04 10:46:02;;;;;;;1.73;0.80;;;19.00;99.90;;;;;;5018301;28;20037;-61
2023/08/04 10:48:34;;;;;;;1.83;0.70;;;19.30;99.90;;;;;;5020087;28;20108;-61
2023/08/04 10:51:01;;;;;;;1.52;0.80;;;19.60;99.90;;;;;;5022958;28;20038;-61
2023/08/04 10:53:29;;;;;;;2.65;0.80;;;19.80;99.90;;;;;;5031001;28;20444;-61
2023/08/04 10:55:58;;;;;;;3.55;1.10;;;19.90;99.90;;;;;;5026261;28;20053;-61
2023/08/04 10:58:27;;;;;;;1.90;0.90;;;19.90;99.90;;;;;;5028897;28;20430;-61
2023/08/04 11:00:54;;;;;;;1.55;0.90;;;19.90;99.90;;;;;;5031678;28;20068;-61
2023/08/04 11:03:29;;;;;;;1.70;0.80;;;19.70;99.90;;;;;;5026587;28;20569;-61
2023/08/04 11:05:57;;;;;;;3.05;1.00;;;19.60;99.90;;;;;;5020856;28;20040;-62
2023/08/04 11:08:24;;;;;;;1.50;1.10;;;19.40;99.90;;;;;;5028217;28;20053;-61
2023/08/04 11:10:56;;;;;;;1.25;1.00;;;19.30;99.90;;;;;;5020230;28;20037;-62
2023/08/04 11:13:25;;;;;;;1.75;1.08;;;19.10;99.90;;;;;;5016027;28;20616;-61
2023/08/04 11:15:53;;;;;;;2.03;1.05;;;19.00;99.90;;;;;;5023734;28;20406;-61
2023/08/04 11:18:26;;;;;;;3.28;0.80;;;18.80;99.90;;;;;;5016727;28;20057;-61
2023/08/04 11:20:53;;;;;;;1.38;0.73;;;18.60;99.90;;;;;;5032003;28;20044;-61
2023/08/04 11:23:27;;;;;;;2.45;0.80;;;18.60;99.90;;;;;;5011128;28;20045;-61
2023/08/04 11:25:55;;;;;;;2.92;1.30;;;18.50;99.90;;;;;;5022516;28;20046;-62
2023/08/04 11:28:23;;;;;;;3.25;1.13;;;18.40;99.90;;;;;;5023870;28;20042;-61
2023/08/04 11:31:01;;;;;;;2.50;1.20;;;18.40;99.90;;;;;;5030654;28;20368;-61
2023/08/04 11:33:28;;;;;;;4.10;1.45;;;18.50;99.90;;;;;;5005372;28;20046;-61
2023/08/04 11:35:55;;;;;;;2.45;1.27;;;18.40;99.90;;;;;;5015215;28;20426;-59
2023/08/04 11:38:22;;;;;;;1.98;1.05;;;18.60;99.90;;;;;;5013206;28;20045;-61
2023/08/04 11:41:01;;;;;;;3.03;0.98;;;18.60;99.90;;;;;;5021557;28;20038;-59
2023/08/04 11:43:30;;;;;;;1.73;1.13;;;18.70;99.90;;;;;;5015137;28;20037;-61
2023/08/04 11:45:57;;;;;;;3.70;0.90;;;18.80;99.90;;;;;;5023025;28;20044;-61
2023/08/04 11:48:27;;;;;;;3.33;0.88;;;19.10;99.90;;;;;;5024236;28;20037;-61
2023/08/04 11:50:56;;;;;;;2.38;1.40;;;19.10;99.90;;;;;;5030978;28;20053;-61
2023/08/04 11:53:23;;;;;;;3.90;0.90;;;19.30;99.90;;;;;;5026262;28;20096;-61
2023/08/04 11:56:04;;;;;;;2.17;1.08;;;19.30;99.90;;;;;;5019928;28;20050;-62
2023/08/04 11:58:35;;;;;;;3.28;1.17;;;19.00;99.90;;;;;;5011722;28;20134;-60
2023/08/04 12:01:03;;;;;;;2.38;1.00;;;18.80;99.90;;;;;;5011539;28;20092;-62
2023/08/04 12:03:48;;;;;;;3.78;1.15;;;18.80;99.90;;;;;;5022134;28;20069;-61
2023/08/04 12:06:23;;;;;;;2.92;1.00;;;18.80;99.90;;;;;;5021079;28;20053;-61
2023/08/04 12:08:54;;;;;;;1.90;1.00;;;19.10;99.90;;;;;;5026869;28;20045;-61
2023/08/04 12:11:23;;;;;;;2.40;1.10;;;19.40;99.90;;;;;;5011416;28;20041;-61
2023/08/04 12:13:50;;;;;;;1.63;0.90;;;19.70;99.90;;;;;;5018827;28;20041;-61
2023/08/04 12:16:18;;;;;;;3.38;1.40;;;19.80;99.90;;;;;;5012042;28;20052;-62
2023/08/04 12:18:49;;;;;;;1.58;0.90;;;19.90;99.90;;;;;;5026005;28;20084;-62
2023/08/04 12:21:17;;;;;;;2.97;1.10;;;20.10;99.90;;;;;;5020070;28;20042;-62
2023/08/04 12:23:48;;;;;;;11.38;1.13;;;20.10;99.90;;;;;;5023083;28;20410;-61
2023/08/04 12:26:16;;;;;;;3.33;1.13;;;20.20;99.90;;;;;;5021583;28;20391;-62
2023/08/04 12:28:43;;;;;;;2.35;1.23;;;20.00;99.90;;;;;;5029958;28;20461;-60
2023/08/04 12:31:09;;;;;;;3.63;1.00;;;19.80;99.90;;;;;;5029620;28;20045;-62
2023/08/04 12:33:42;;;;;;;1.73;0.90;;;19.70;99.90;;;;;;5016358;28;20461;-61
2023/08/04 12:36:09;;;;;;;;;;;19.70;99.90;;;;;;5023083;28;20069;-62
2023/08/04 12:38:35;;;;;;;2.42;1.10;;;19.70;99.90;;;;;;5029664;28;20397;-62
2023/08/04 12:41:02;;;;;;;3.85;1.38;;;19.60;99.90;;;;;;5022092;28;20048;-62
2023/08/04 12:43:29;;;;;;;1.42;1.02;;;19.50;99.90;;;;;;5019855;28;20540;-61
2023/08/04 12:45:56;;;;;;;4.90;1.10;;;19.50;99.90;;;;;;5024233;28;20045;-62
2023/08/04 12:48:23;;;;;;;2.10;1.00;;;19.40;99.90;;;;;;5022335;28;20049;-61
2023/08/04 12:50:50;;;;;;;2.72;1.00;;;19.20;99.90;;;;;;5023361;28;20045;-60
2023/08/04 12:53:17;;;;;;;4.60;1.50;;;19.10;99.90;;;;;;5018675;28;20038;-61